Force, Pennsylvania
Current Conditions -  °F | °C
As of 10:54 PM on Friday 24 Oct 2014 (Local Time) from KFIG Reporting Station
Clear Clear  
Wind Chill: 42°   Ceiling: Unl
Heat Index: 45°   Visibility: 10mi
Dew Point: 37°   Wind: 6mph
Humidity: 74%   Direction: 230°SW
Pressure: 29.99"   Gusts: NA
Location:  41.26°N, 78.5°W
Report Text: KFIG 250254Z AUTO 23005KT 10SM CLR 07/03 A2999 RMK AO2 SLP159 T00720028 51005
Loading
Personal Weather Stations






























Interactive Weather Map
Tropical Storm Tracking
New forecast layout! Learn more

10-Day Weather Forecast

Advertisements
Track Severe Weather on mobile